createdAt,value
2023-05-10T00:01:22.053Z,7.18
2023-05-10T00:03:49.463Z,7.14
2023-05-10T00:06:16.813Z,7.14
2023-05-10T00:08:44.015Z,7.11
2023-05-10T00:11:11.155Z,7.07
2023-05-10T00:13:38.233Z,7.05
2023-05-10T00:16:05.942Z,7.13
2023-05-10T00:18:33.315Z,7.07
2023-05-10T00:21:00.625Z,7.01
2023-05-10T00:23:27.917Z,6.94
2023-05-10T00:25:55.299Z,7.03
2023-05-10T00:28:22.441Z,7.00
2023-05-10T00:30:49.584Z,7.02
2023-05-10T00:33:16.812Z,6.99
2023-05-10T00:35:44.466Z,6.94
2023-05-10T00:38:11.644Z,6.87
2023-05-10T00:40:39.095Z,6.93
2023-05-10T00:43:12.250Z,6.88
2023-05-10T00:45:41.501Z,6.82
2023-05-10T00:48:09.793Z,6.76
2023-05-10T00:50:38.619Z,6.77
2023-05-10T00:53:05.986Z,6.71
2023-05-10T00:55:33.262Z,6.69
2023-05-10T00:58:00.482Z,6.65
2023-05-10T01:00:27.676Z,6.71
2023-05-10T01:02:55.749Z,6.76
2023-05-10T01:05:23.563Z,6.74
2023-05-10T01:07:51.913Z,6.70
2023-05-10T01:10:19.663Z,6.68
2023-05-10T01:12:48.907Z,6.63
2023-05-10T01:15:17.609Z,6.54
2023-05-10T01:17:47.109Z,6.66
2023-05-10T01:20:14.865Z,6.69
2023-05-10T01:23:09.001Z,6.67
2023-05-10T01:26:16.087Z,6.65
2023-05-10T01:28:49.327Z,6.55
2023-05-10T01:32:21.727Z,6.50
2023-05-10T01:35:19.266Z,6.44
2023-05-10T01:37:53.896Z,6.45
2023-05-10T01:40:47.182Z,6.46
2023-05-10T01:43:20.816Z,6.41
2023-05-10T01:46:13.837Z,6.41
2023-05-10T01:49:00.571Z,6.42
2023-05-10T01:51:32.137Z,6.32
2023-05-10T01:54:04.077Z,6.33
2023-05-10T01:56:33.545Z,6.41
2023-05-10T01:59:01.321Z,6.36
2023-05-10T02:01:29.325Z,6.32
2023-05-10T02:03:57.307Z,6.33
2023-05-10T02:06:25.863Z,6.29
2023-05-10T02:08:53.536Z,6.29
2023-05-10T02:11:22.156Z,6.42
2023-05-10T02:13:52.362Z,6.45
2023-05-10T02:16:23.485Z,6.50
2023-05-10T02:18:53.214Z,6.42
2023-05-10T02:21:22.223Z,6.39
2023-05-10T02:23:50.361Z,6.45
2023-05-10T02:26:18.553Z,6.46
2023-05-10T02:28:46.514Z,6.40
2023-05-10T02:31:15.809Z,6.45
2023-05-10T02:33:44.214Z,6.51
2023-05-10T02:36:15.771Z,6.55
2023-05-10T02:38:43.122Z,6.53
2023-05-10T02:41:11.581Z,6.47
2023-05-10T02:43:41.915Z,6.55
2023-05-10T02:46:10.425Z,6.54
2023-05-10T02:48:38.515Z,6.64
2023-05-10T02:51:08.509Z,6.55
2023-05-10T02:53:37.589Z,6.57
2023-05-10T02:56:14.529Z,6.65
2023-05-10T02:58:42.893Z,6.65
2023-05-10T03:01:13.554Z,6.63
2023-05-10T03:03:43.682Z,6.65
2023-05-10T03:06:11.277Z,6.71
2023-05-10T03:08:38.769Z,6.62
2023-05-10T03:11:19.131Z,6.75
2023-05-10T03:14:15.089Z,6.84
2023-05-10T03:16:55.887Z,6.87
2023-05-10T03:19:32.864Z,6.94
2023-05-10T03:22:01.353Z,6.95
2023-05-10T03:24:36.141Z,7.04
2023-05-10T03:27:08.312Z,7.06
2023-05-10T03:29:40.650Z,7.02
2023-05-10T03:32:08.200Z,7.09
2023-05-10T03:34:38.260Z,7.13
2023-05-10T03:37:08.579Z,7.25
2023-05-10T03:39:36.550Z,7.22
2023-05-10T03:42:06.536Z,7.24
2023-05-10T03:44:34.590Z,7.10
2023-05-10T03:47:02.017Z,7.25
2023-05-10T03:49:29.651Z,7.24
2023-05-10T03:51:57.100Z,7.33
2023-05-10T03:54:27.714Z,7.41
2023-05-10T03:56:55.112Z,7.45
2023-05-10T03:59:22.877Z,7.49
2023-05-10T04:01:52.276Z,7.53
2023-05-10T04:04:19.931Z,7.62
2023-05-10T04:06:50.762Z,7.66
2023-05-10T04:09:18.357Z,7.74
2023-05-10T04:11:45.528Z,7.87
2023-05-10T04:14:12.925Z,7.95
2023-05-10T04:16:40.661Z,8.02
2023-05-10T04:19:07.809Z,7.98
2023-05-10T04:21:34.950Z,8.08
2023-05-10T04:24:02.031Z,8.20
2023-05-10T04:26:29.284Z,8.26
2023-05-10T04:28:56.411Z,8.35
2023-05-10T04:31:25.973Z,8.43
2023-05-10T04:33:53.478Z,8.55
2023-05-10T04:36:20.737Z,8.63
2023-05-10T04:38:47.968Z,8.67
2023-05-10T04:41:15.096Z,8.77
2023-05-10T04:43:42.195Z,8.86
2023-05-10T04:46:09.378Z,9.00
2023-05-10T04:48:36.498Z,9.02
2023-05-10T04:51:05.169Z,9.08
2023-05-10T04:53:32.589Z,9.20
2023-05-10T04:55:59.894Z,9.31
2023-05-10T04:58:27.193Z,9.35
2023-05-10T05:00:54.241Z,9.43
2023-05-10T05:03:24.570Z,9.40
2023-05-10T05:05:51.906Z,9.76
2023-05-10T05:08:21.282Z,9.88
2023-05-10T05:10:51.276Z,10.02
2023-05-10T05:13:18.460Z,10.17
2023-05-10T05:15:45.811Z,10.36
2023-05-10T05:18:13.156Z,10.38
2023-05-10T05:20:40.520Z,10.40
2023-05-10T05:23:09.873Z,10.60
2023-05-10T05:25:37.335Z,10.72
2023-05-10T05:28:04.558Z,10.78
2023-05-10T05:30:31.573Z,10.94
2023-05-10T05:32:58.721Z,11.08
2023-05-10T05:35:25.950Z,11.17
2023-05-10T05:37:53.120Z,11.31
2023-05-10T05:40:24.680Z,11.38
2023-05-10T05:42:52.091Z,11.67
2023-05-10T05:45:24.023Z,11.85
2023-05-10T05:47:51.162Z,11.95
2023-05-10T05:50:20.489Z,12.12
2023-05-10T05:52:48.929Z,12.07
2023-05-10T05:55:16.945Z,12.07
2023-05-10T05:57:44.627Z,12.30
2023-05-10T06:00:12.183Z,12.49
2023-05-10T06:02:42.520Z,12.39
2023-05-10T06:05:09.967Z,12.63
2023-05-10T06:07:40.450Z,12.92
2023-05-10T06:10:08.058Z,12.96
2023-05-10T06:12:38.712Z,12.98
2023-05-10T06:15:09.169Z,13.07
2023-05-10T06:17:36.363Z,13.19
2023-05-10T06:20:03.888Z,13.09
2023-05-10T06:22:32.208Z,13.14
2023-05-10T06:24:59.357Z,13.26
2023-05-10T06:27:26.441Z,13.54
2023-05-10T06:30:02.086Z,13.94
2023-05-10T06:32:40.164Z,14.31
2023-05-10T06:35:09.765Z,14.55
2023-05-10T06:37:38.882Z,14.43
2023-05-10T06:40:07.393Z,14.23
2023-05-10T06:42:34.824Z,14.21
2023-05-10T06:45:03.471Z,14.18
2023-05-10T06:47:32.854Z,14.15
2023-05-10T06:50:00.216Z,14.46
2023-05-10T06:52:27.248Z,14.39
2023-05-10T06:54:54.424Z,14.47
2023-05-10T06:57:31.418Z,14.40
2023-05-10T07:00:02.959Z,14.45
2023-05-10T07:02:33.859Z,14.58
2023-05-10T07:05:03.270Z,14.39
2023-05-10T07:07:32.669Z,14.45
2023-05-10T07:10:00.140Z,14.49
2023-05-10T07:12:27.662Z,14.54
2023-05-10T07:14:54.914Z,14.48
2023-05-10T07:17:22.153Z,14.74
2023-05-10T07:19:49.628Z,14.74
2023-05-10T07:22:18.403Z,14.98
2023-05-10T07:24:46.682Z,15.30
2023-05-10T07:27:14.202Z,15.38
2023-05-10T07:29:41.218Z,15.39
2023-05-10T07:32:08.270Z,15.58
2023-05-10T07:34:35.391Z,15.38
2023-05-10T07:37:02.881Z,15.51
2023-05-10T07:39:30.153Z,15.62
2023-05-10T07:41:57.521Z,15.65
2023-05-10T07:44:24.728Z,15.99
2023-05-10T07:46:51.845Z,15.93
2023-05-10T07:49:19.418Z,15.93
2023-05-10T07:51:46.714Z,15.96
2023-05-10T07:54:13.975Z,16.22
2023-05-10T07:56:45.830Z,16.12
2023-05-10T07:59:16.699Z,16.27
2023-05-10T08:01:44.112Z,16.81
2023-05-10T08:04:11.730Z,16.95
2023-05-10T08:06:39.393Z,16.37
2023-05-10T08:09:06.445Z,16.08
2023-05-10T08:11:35.034Z,16.53
2023-05-10T08:14:02.713Z,17.04
2023-05-10T08:16:31.761Z,17.13
2023-05-10T08:19:00.976Z,17.03
2023-05-10T08:21:28.640Z,17.35
2023-05-10T08:23:57.244Z,17.74
2023-05-10T08:26:24.331Z,17.76
2023-05-10T08:28:51.359Z,17.43
2023-05-10T08:31:23.480Z,17.85
2023-05-10T08:33:52.686Z,17.53
2023-05-10T08:36:22.994Z,17.59
2023-05-10T08:38:56.180Z,18.28
2023-05-10T08:41:27.491Z,18.55
2023-05-10T08:43:56.732Z,18.89
2023-05-10T08:46:28.061Z,19.85
2023-05-10T08:48:55.303Z,19.26
2023-05-10T08:51:35.530Z,18.41
2023-05-10T08:54:04.099Z,18.33
2023-05-10T08:56:31.187Z,19.36
2023-05-10T08:58:58.454Z,20.40
2023-05-10T09:01:26.549Z,20.24
2023-05-10T09:03:54.284Z,20.25
2023-05-10T09:06:22.722Z,21.32
2023-05-10T09:08:49.879Z,20.89
2023-05-10T09:11:23.770Z,18.61
2023-05-10T09:13:52.739Z,18.29
2023-05-10T09:16:21.572Z,17.92
2023-05-10T09:18:50.845Z,17.33
2023-05-10T09:21:17.923Z,17.19
2023-05-10T09:23:48.944Z,17.26
2023-05-10T09:26:16.607Z,17.44
2023-05-10T09:28:59.622Z,18.30
2023-05-10T09:31:55.941Z,18.63
2023-05-10T09:34:37.102Z,19.89
2023-05-10T09:37:07.139Z,20.36
2023-05-10T09:39:35.742Z,20.52
2023-05-10T09:42:14.351Z,21.80
2023-05-10T09:44:50.943Z,22.53
2023-05-10T09:47:21.345Z,21.97
2023-05-10T09:49:52.311Z,20.74
2023-05-10T09:52:19.488Z,20.76
2023-05-10T09:55:09.041Z,21.97
2023-05-10T09:57:38.087Z,20.39
2023-05-10T10:00:07.110Z,19.32
2023-05-10T10:02:44.334Z,20.65
2023-05-10T10:05:14.472Z,22.10
2023-05-10T10:07:51.479Z,23.02
2023-05-10T10:10:18.644Z,24.57
2023-05-10T10:12:46.795Z,25.61
2023-05-10T10:15:19.520Z,24.99
2023-05-10T10:17:47.803Z,23.32
2023-05-10T10:20:16.349Z,22.34
2023-05-10T10:22:50.496Z,21.82
2023-05-10T10:25:19.356Z,21.32
2023-05-10T10:27:53.342Z,20.83
2023-05-10T10:30:23.162Z,20.34
2023-05-10T10:32:59.630Z,20.01
2023-05-10T10:35:26.710Z,19.99
2023-05-10T10:37:56.732Z,20.20
2023-05-10T10:40:28.525Z,20.22
2023-05-10T10:42:56.313Z,19.65
2023-05-10T10:45:25.542Z,19.36
2023-05-10T10:48:21.298Z,19.76
2023-05-10T10:50:48.417Z,19.91
2023-05-10T10:53:19.401Z,21.49
2023-05-10T10:55:51.588Z,23.77
2023-05-10T10:58:33.286Z,25.55
2023-05-10T11:01:19.520Z,23.68
2023-05-10T11:04:18.743Z,21.75
2023-05-10T11:06:50.485Z,21.15
2023-05-10T11:09:18.611Z,20.59
2023-05-10T11:11:59.587Z,19.53
2023-05-10T11:14:26.917Z,19.51
2023-05-10T11:16:54.095Z,19.70
2023-05-10T11:19:21.868Z,19.88
2023-05-10T11:21:55.099Z,20.06
2023-05-10T11:24:24.382Z,20.19
2023-05-10T11:26:56.669Z,20.10
2023-05-10T11:29:24.084Z,20.05
2023-05-10T11:31:52.014Z,19.99
2023-05-10T11:34:31.890Z,19.98
2023-05-10T11:36:59.463Z,19.95
2023-05-10T11:39:30.561Z,19.99
2023-05-10T11:42:00.582Z,20.16
2023-05-10T11:44:34.561Z,20.19
2023-05-10T11:47:05.090Z,20.25
2023-05-10T11:49:35.066Z,21.26
2023-05-10T11:52:10.369Z,21.69
2023-05-10T11:54:37.544Z,22.07
2023-05-10T11:57:05.168Z,21.85
2023-05-10T11:59:34.264Z,21.62
2023-05-10T12:02:02.569Z,21.02
2023-05-10T12:04:30.662Z,20.51
2023-05-10T12:07:01.060Z,19.79
2023-05-10T12:09:42.755Z,19.22
2023-05-10T12:12:10.964Z,18.97
2023-05-10T12:14:38.264Z,19.09
2023-05-10T12:17:05.691Z,19.41
2023-05-10T12:19:39.792Z,19.66
2023-05-10T12:22:07.533Z,19.76
2023-05-10T12:24:36.571Z,19.55
2023-05-10T12:27:08.446Z,19.66
2023-05-10T12:29:38.409Z,19.48
2023-05-10T12:32:05.605Z,19.25
2023-05-10T12:34:37.332Z,19.21
2023-05-10T12:37:05.089Z,18.93
2023-05-10T12:39:42.975Z,18.87
2023-05-10T12:42:10.530Z,18.50
2023-05-10T12:44:40.253Z,18.10
2023-05-10T12:47:10.095Z,18.36
2023-05-10T12:49:42.862Z,18.31
2023-05-10T12:52:09.868Z,18.39
2023-05-10T12:54:38.086Z,18.58
2023-05-10T12:57:05.333Z,18.30
2023-05-10T12:59:32.384Z,18.40
2023-05-10T13:01:59.503Z,18.24
2023-05-10T13:04:26.861Z,18.12
2023-05-10T13:06:53.983Z,17.97
2023-05-10T13:09:21.591Z,17.84
2023-05-10T13:11:49.421Z,17.88
2023-05-10T13:14:18.206Z,18.05
2023-05-10T13:16:45.909Z,18.35
2023-05-10T13:19:14.263Z,18.42
2023-05-10T13:21:47.957Z,18.32
2023-05-10T13:24:15.176Z,18.38
2023-05-10T13:26:44.874Z,18.08
2023-05-10T13:29:11.990Z,17.79
2023-05-10T13:31:39.129Z,17.84
2023-05-10T13:34:06.725Z,17.81
2023-05-10T13:36:35.276Z,17.67
2023-05-10T13:39:03.990Z,17.55
2023-05-10T13:41:30.936Z,17.41
2023-05-10T13:43:58.141Z,17.21
2023-05-10T13:46:25.240Z,17.13
2023-05-10T13:48:53.348Z,17.04
2023-05-10T13:51:22.665Z,17.02
2023-05-10T13:53:53.218Z,16.95
2023-05-10T13:56:20.411Z,16.84
2023-05-10T13:58:49.952Z,16.79
2023-05-10T14:01:17.129Z,16.34
2023-05-10T14:03:44.433Z,15.94
2023-05-10T14:06:11.926Z,15.91
2023-05-10T14:08:38.983Z,16.01
2023-05-10T14:11:06.389Z,15.68
2023-05-10T14:13:33.950Z,15.61
2023-05-10T14:16:01.894Z,15.57
2023-05-10T14:18:29.587Z,15.72
2023-05-10T14:20:57.364Z,15.97
2023-05-10T14:23:29.702Z,16.05
2023-05-10T14:25:57.566Z,15.92
2023-05-10T14:28:25.776Z,15.80
2023-05-10T14:30:53.026Z,15.82
2023-05-10T14:33:22.539Z,15.94
2023-05-10T14:35:49.940Z,15.91
2023-05-10T14:38:17.111Z,16.10
2023-05-10T14:40:46.265Z,16.16
2023-05-10T14:43:13.531Z,16.23
2023-05-10T14:45:43.482Z,16.29
2023-05-10T14:48:16.511Z,16.28
2023-05-10T14:50:43.742Z,16.29
2023-05-10T14:53:11.211Z,16.34
2023-05-10T14:55:39.365Z,16.27
2023-05-10T14:58:06.726Z,16.28
2023-05-10T15:00:36.715Z,16.29
2023-05-10T15:03:07.821Z,16.31
2023-05-10T15:05:35.452Z,16.27
2023-05-10T15:08:03.202Z,16.19
2023-05-10T15:10:32.541Z,16.07
2023-05-10T15:13:00.921Z,16.01
2023-05-10T15:15:27.967Z,16.08
2023-05-10T15:17:55.049Z,15.89
2023-05-10T15:20:22.486Z,15.97
2023-05-10T15:22:49.481Z,15.94
2023-05-10T15:25:17.375Z,15.88
2023-05-10T15:27:44.748Z,15.82
2023-05-10T15:30:12.269Z,15.82
2023-05-10T15:32:41.234Z,15.72
2023-05-10T15:35:11.667Z,15.71
2023-05-10T15:37:41.948Z,15.63
2023-05-10T15:40:09.343Z,15.61
2023-05-10T15:42:36.447Z,15.55
2023-05-10T15:45:03.957Z,15.53
2023-05-10T15:47:34.003Z,15.49
2023-05-10T15:50:01.202Z,15.42
2023-05-10T15:52:30.990Z,15.24
2023-05-10T15:54:58.318Z,15.24
2023-05-10T15:57:25.527Z,15.20
2023-05-10T15:59:54.442Z,15.21
2023-05-10T16:02:23.565Z,15.20
2023-05-10T16:04:55.613Z,15.16
2023-05-10T16:07:22.786Z,15.08
2023-05-10T16:09:49.946Z,15.00
2023-05-10T16:12:17.068Z,15.01
2023-05-10T16:14:44.466Z,14.95
2023-05-10T16:17:15.802Z,14.92
2023-05-10T16:19:43.307Z,14.89
2023-05-10T16:22:10.469Z,14.73
2023-05-10T16:24:37.685Z,14.67
2023-05-10T16:27:04.803Z,14.75
2023-05-10T16:29:34.932Z,14.64
2023-05-10T16:32:02.326Z,14.59
2023-05-10T16:43:39.975Z,14.19
2023-05-10T16:46:11.531Z,14.16
2023-05-10T16:48:39.539Z,14.15
2023-05-10T16:51:06.608Z,14.14
2023-05-10T16:53:34.457Z,14.11
2023-05-10T16:56:04.269Z,14.08
2023-05-10T16:58:31.379Z,14.11
2023-05-10T17:00:58.735Z,14.08
2023-05-10T17:03:26.734Z,14.06
2023-05-10T17:05:56.708Z,14.04
2023-05-10T17:08:23.882Z,13.92
2023-05-10T17:10:53.053Z,14.00
2023-05-10T17:13:22.576Z,13.98
2023-05-10T17:15:54.035Z,13.87
2023-05-10T17:18:24.524Z,13.82
2023-05-10T17:20:53.979Z,13.78
2023-05-10T17:23:49.487Z,13.86
2023-05-10T17:26:20.713Z,13.76
2023-05-10T17:28:47.823Z,13.69
2023-05-10T17:31:35.980Z,13.68
2023-05-10T17:34:05.481Z,13.59
2023-05-10T17:36:52.375Z,13.66
2023-05-10T17:39:22.106Z,13.62
2023-05-10T17:41:52.040Z,13.58
2023-05-10T17:44:21.722Z,13.56
2023-05-10T17:46:49.166Z,13.43
2023-05-10T17:49:29.104Z,13.44
2023-05-10T17:51:58.522Z,13.55
2023-05-10T17:54:28.063Z,13.49
2023-05-10T17:56:59.447Z,13.49
2023-05-10T17:59:26.667Z,13.30
2023-05-10T18:01:57.054Z,13.30
2023-05-10T18:04:31.124Z,13.36
2023-05-10T18:07:01.565Z,13.33
2023-05-10T18:09:36.065Z,13.11
2023-05-10T18:12:14.088Z,13.26
2023-05-10T18:14:43.894Z,13.13
2023-05-10T18:17:13.752Z,13.13
2023-05-10T18:19:50.486Z,13.13
2023-05-10T18:22:23.208Z,13.04
2023-05-10T18:24:53.588Z,12.85
2023-05-10T18:27:26.838Z,12.92
2023-05-10T18:29:54.652Z,12.89
2023-05-10T18:32:23.053Z,12.78
2023-05-10T18:34:50.286Z,12.88
2023-05-10T18:37:20.228Z,12.73
2023-05-10T18:39:48.070Z,12.76
2023-05-10T18:42:18.345Z,12.73
2023-05-10T18:44:45.367Z,12.72
2023-05-10T18:47:12.372Z,12.79
2023-05-10T18:49:41.100Z,12.73
2023-05-10T18:52:08.330Z,12.77
2023-05-10T18:54:43.005Z,12.93
2023-05-10T18:57:14.012Z,12.78
2023-05-10T18:59:48.992Z,12.78
2023-05-10T19:02:18.791Z,12.68
2023-05-10T19:04:52.145Z,12.68
2023-05-10T19:07:22.609Z,12.53
2023-05-10T19:09:50.679Z,12.48
2023-05-10T19:12:22.249Z,12.56
2023-05-10T19:14:55.344Z,12.39
2023-05-10T19:17:26.215Z,12.40
2023-05-10T19:19:53.406Z,12.35
2023-05-10T19:22:44.921Z,12.14
2023-05-10T19:25:18.432Z,12.31
2023-05-10T19:27:54.906Z,12.21
2023-05-10T19:30:21.996Z,12.18
2023-05-10T19:32:48.964Z,12.05
2023-05-10T19:35:20.549Z,12.06
2023-05-10T19:37:55.471Z,11.95
2023-05-10T19:40:22.862Z,12.01
2023-05-10T19:42:52.058Z,12.03
2023-05-10T19:45:19.633Z,11.91
2023-05-10T19:47:50.687Z,11.98
2023-05-10T19:50:18.355Z,12.00
2023-05-10T19:52:49.298Z,11.89
2023-05-10T19:55:33.170Z,11.82
2023-05-10T19:58:04.530Z,11.94
2023-05-10T20:00:32.045Z,11.94
2023-05-10T20:02:59.212Z,11.91
2023-05-10T20:05:26.462Z,11.90
2023-05-10T20:07:54.930Z,11.77
2023-05-10T20:10:28.550Z,11.61
2023-05-10T20:12:59.149Z,11.61
2023-05-10T20:15:31.819Z,11.52
2023-05-10T20:17:58.944Z,11.50
2023-05-10T20:20:26.035Z,11.52
2023-05-10T20:22:53.121Z,11.53
2023-05-10T20:25:22.241Z,11.52
2023-05-10T20:27:51.027Z,11.54
2023-05-10T20:30:23.106Z,11.52
2023-05-10T20:32:53.251Z,11.46
2023-05-10T20:35:20.470Z,11.41
2023-05-10T20:40:30.048Z,11.27
2023-05-10T20:43:27.625Z,11.43
2023-05-10T20:46:15.132Z,11.31
2023-05-10T20:48:45.244Z,11.42
2023-05-10T20:51:12.296Z,11.28
2023-05-10T20:53:39.339Z,11.41
2023-05-10T20:56:06.518Z,11.26
2023-05-10T20:58:33.839Z,11.23
2023-05-10T21:01:01.563Z,11.25
2023-05-10T21:03:28.907Z,11.27
2023-05-10T21:05:57.092Z,11.12
2023-05-10T21:08:24.253Z,11.18
2023-05-10T21:10:51.241Z,11.11
2023-05-10T21:13:18.440Z,11.14
2023-05-10T21:15:46.671Z,11.07
2023-05-10T21:18:14.123Z,11.03
2023-05-10T21:20:41.140Z,11.01
2023-05-10T21:23:08.499Z,10.99
2023-05-10T21:25:35.852Z,11.01
2023-05-10T21:28:03.186Z,11.01
2023-05-10T21:30:30.366Z,10.97
2023-05-10T21:33:01.701Z,11.09
2023-05-10T21:35:30.200Z,11.07
2023-05-10T21:38:00.014Z,11.08
2023-05-10T21:40:27.000Z,11.04
2023-05-10T21:42:54.004Z,11.08
2023-05-10T21:45:25.546Z,11.18
2023-05-10T21:47:58.931Z,11.21
2023-05-10T21:50:27.653Z,11.17
2023-05-10T21:52:55.891Z,11.19
2023-05-10T21:55:22.971Z,11.23
2023-05-10T21:57:50.870Z,11.22
2023-05-10T22:00:19.870Z,11.14
2023-05-10T22:02:47.534Z,11.07
2023-05-10T22:05:14.690Z,11.09
2023-05-10T22:07:41.638Z,10.99
2023-05-10T22:10:11.728Z,11.01
2023-05-10T22:12:38.837Z,10.91
2023-05-10T22:15:10.212Z,10.86
2023-05-10T22:17:39.728Z,10.75
2023-05-10T22:20:08.554Z,10.62
2023-05-10T22:22:36.833Z,10.61
2023-05-10T22:25:07.992Z,10.56
2023-05-10T22:27:35.194Z,10.47
2023-05-10T22:30:02.934Z,10.46
2023-05-10T22:32:35.908Z,10.41
2023-05-10T22:35:03.452Z,10.45
2023-05-10T22:37:32.375Z,10.48
2023-05-10T22:39:59.441Z,10.49
2023-05-10T22:42:33.517Z,10.48
2023-05-10T22:45:00.680Z,10.52
2023-05-10T22:47:27.679Z,10.54
2023-05-10T22:49:57.553Z,10.55
2023-05-10T22:55:09.366Z,10.58
2023-05-10T22:57:36.474Z,10.58
2023-05-10T23:00:06.237Z,10.61
2023-05-10T23:02:34.611Z,10.55
2023-05-10T23:05:01.920Z,10.54
2023-05-10T23:07:30.232Z,10.55
2023-05-10T23:09:58.678Z,10.54
2023-05-10T23:12:28.212Z,10.52
2023-05-10T23:14:58.003Z,10.44
2023-05-10T23:17:28.377Z,10.40
2023-05-10T23:19:55.472Z,10.41
2023-05-10T23:22:30.720Z,10.37
2023-05-10T23:24:58.046Z,10.35
2023-05-10T23:27:29.480Z,10.31
2023-05-10T23:29:57.283Z,10.23
2023-05-10T23:32:24.453Z,10.17
2023-05-10T23:34:51.589Z,10.15
2023-05-10T23:37:18.582Z,10.04
2023-05-10T23:39:45.753Z,10.04
2023-05-10T23:42:12.740Z,10.03
2023-05-10T23:44:39.778Z,10.14
2023-05-10T23:47:09.618Z,10.19
2023-05-10T23:49:37.003Z,10.29
2023-05-10T23:52:04.507Z,10.31
2023-05-10T23:54:31.398Z,10.36
2023-05-10T23:56:58.426Z,10.29
2023-05-10T23:59:25.700Z,10.26
